Time;durP1;ratioP1;P1;durP2;ratioP2;P2;SDS_P1;SDS_P2;PMS_P1;PMS_P2;Temp;Humidity;BMP_temperature;BMP_pressure;BME280_temperature;BME280_humidity;BME280_pressure;Samples;Min_cycle;Max_cycle;Signal;HPM_P1;HPM_P2
2023/03/31 00:00:10;;;;;;;9.73;4.00;;;;;;;;;;5020428;28;20025;-58
2023/03/31 00:02:36;;;;;;;9.07;3.92;;;;;;;;;;5014352;28;20055;-58
2023/03/31 00:05:01;;;;;;;6.10;3.78;;;;;;;;;;5006414;28;20053;-58
2023/03/31 00:07:26;;;;;;;6.70;4.05;;;;;;;;;;5021844;28;20086;-59
2023/03/31 00:09:56;;;;;;;9.18;3.88;;;;;;;;;;5007273;28;20412;-60
2023/03/31 00:12:22;;;;;;;8.25;3.83;;;;;;;;;;5007834;28;20504;-60
2023/03/31 00:14:47;;;;;;;10.05;4.28;;;;;;;;;;5017662;28;20486;-58
2023/03/31 00:17:12;;;;;;;6.53;3.50;;;;;;;;;;5007427;28;20057;-58
2023/03/31 00:19:39;;;;;;;7.25;3.90;;;;;;;;;;5012498;28;20116;-59
2023/03/31 00:22:04;;;;;;;12.30;4.40;;;;;;;;;;5004964;28;20025;-60
2023/03/31 00:24:33;;;;;;;9.65;3.80;;;;;;;;;;5011880;28;20041;-58
2023/03/31 00:26:59;;;;;;;7.78;3.67;;;;;;;;;;5014026;28;20311;-59
2023/03/31 00:29:25;;;;;;;9.15;3.20;;;;;;;;;;5008797;28;20026;-59
2023/03/31 00:31:51;;;;;;;6.05;3.30;;;;;;;;;;5010440;28;20018;-58
2023/03/31 00:34:16;;;;;;;8.52;3.17;;;;;;;;;;5012035;28;20026;-58
2023/03/31 00:36:47;;;;;;;9.27;3.60;;;;;;;;;;5019800;28;20489;-58
2023/03/31 00:39:14;;;;;;;8.50;3.17;;;;;;;;;;5016149;28;20050;-57
2023/03/31 00:41:40;;;;;;;10.85;3.42;;;;;;;;;;5011992;28;20148;-59
2023/03/31 00:44:07;;;;;;;7.65;3.28;;;;;;;;;;5014151;28;20514;-57
2023/03/31 00:46:55;;;;;;;5.07;3.10;;;;;;;;;;5013575;28;20037;-58
2023/03/31 00:49:24;;;;;;;6.85;3.55;;;;;;;;;;5003783;28;20041;-58
2023/03/31 00:51:51;;;;;;;9.10;3.50;;;;;;;;;;5012959;28;20034;-60
2023/03/31 00:54:18;;;;;;;8.30;3.60;;;;;;;;;;5006135;28;20071;-60
2023/03/31 00:56:46;;;;;;;10.65;4.05;;;;;;;;;;5012588;28;20026;-58
2023/03/31 00:59:13;;;;;;;11.15;3.78;;;;;;;;;;5013879;28;20116;-58
2023/03/31 01:01:41;;;;;;;8.00;3.80;;;;;;;;;;5007252;28;20057;-59
2023/03/31 01:04:08;;;;;;;5.90;3.17;;;;;;;;;;5019131;28;20029;-59
2023/03/31 01:06:39;;;;;;;12.25;4.65;;;;;;;;;;5006086;28;20402;-61
2023/03/31 01:09:05;;;;;;;11.35;5.05;;;;;;;;;;5006326;28;20113;-57
2023/03/31 01:11:32;;;;;;;9.07;4.70;;;;;;;;;;5010636;28;20289;-59
2023/03/31 01:13:58;;;;;;;9.52;3.80;;;;;;;;;;5010433;28;20052;-59
2023/03/31 01:16:23;;;;;;;11.82;3.38;;;;;;;;;;5012393;28;20378;-58
2023/03/31 01:18:49;;;;;;;8.68;3.80;;;;;;;;;;5009982;28;20497;-58
2023/03/31 01:25:04;;;;;;;7.70;3.38;;;;;;;;;;5009138;28;20433;-59
2023/03/31 01:27:36;;;;;;;6.13;3.40;;;;;;;;;;5013664;28;20060;-58
2023/03/31 01:30:10;;;;;;;10.45;3.70;;;;;;;;;;5004452;28;20058;-58
2023/03/31 01:32:49;;;;;;;8.35;3.53;;;;;;;;;;5004039;28;20305;-60
2023/03/31 01:35:37;;;;;;;9.30;3.50;;;;;;;;;;5013362;28;20041;-59
2023/03/31 01:38:18;;;;;;;12.57;4.13;;;;;;;;;;4994622;28;20091;-59
2023/03/31 01:41:02;;;;;;;9.93;3.90;;;;;;;;;;5006234;28;20036;-57
2023/03/31 01:43:45;;;;;;;9.35;3.92;;;;;;;;;;5011444;28;20446;-58
2023/03/31 01:46:16;;;;;;;6.85;3.60;;;;;;;;;;5006320;28;20041;-59
2023/03/31 01:48:50;;;;;;;12.63;4.38;;;;;;;;;;4990715;28;20033;-59
2023/03/31 01:51:37;;;;;;;7.38;3.42;;;;;;;;;;5027397;28;20030;-58
2023/03/31 01:54:23;;;;;;;16.23;5.00;;;;;;;;;;5006643;28;20499;-58
2023/03/31 01:56:53;;;;;;;8.15;4.72;;;;;;;;;;4997335;28;20045;-62
2023/03/31 01:59:22;;;;;;;8.70;3.97;;;;;;;;;;5025800;28;20045;-62
2023/03/31 02:01:50;;;;;;;8.68;3.65;;;;;;;;;;5006421;28;20130;-59
2023/03/31 02:04:17;;;;;;;9.73;3.67;;;;;;;;;;5011953;28;20043;-58
2023/03/31 02:06:46;;;;;;;6.10;3.10;;;;;;;;;;5020890;28;20133;-60
2023/03/31 02:09:15;;;;;;;8.60;3.60;;;;;;;;;;5008355;28;20117;-59
2023/03/31 02:11:40;;;;;;;8.43;3.80;;;;;;;;;;5009437;28;20474;-58
2023/03/31 02:14:09;;;;;;;10.68;3.40;;;;;;;;;;5019976;28;20037;-58
2023/03/31 02:16:36;;;;;;;8.13;3.65;;;;;;;;;;5010261;28;20030;-59
2023/03/31 02:19:04;;;;;;;7.35;3.67;;;;;;;;;;5022612;28;20033;-58
2023/03/31 02:21:31;;;;;;;10.35;3.20;;;;;;;;;;5006645;28;20096;-59
2023/03/31 02:23:58;;;;;;;9.23;3.38;;;;;;;;;;5016055;28;20033;-57
2023/03/31 02:26:27;;;;;;;14.73;3.20;;;;;;;;;;5018547;28;20521;-61
2023/03/31 02:28:54;;;;;;;10.35;2.90;;;;;;;;;;5025773;28;20465;-58
2023/03/31 02:31:32;;;;;;;8.75;2.85;;;;;;;;;;5006583;28;20022;-59
2023/03/31 02:33:57;;;;;;;7.30;2.60;;;;;;;;;;5005659;28;20034;-60
2023/03/31 02:36:23;;;;;;;9.80;2.70;;;;;;;;;;5016447;28;20042;-59
2023/03/31 02:38:57;;;;;;;7.65;2.47;;;;;;;;;;5011392;28;20021;-58
2023/03/31 02:41:25;;;;;;;7.40;2.20;;;;;;;;;;5010549;28;20036;-58
2023/03/31 02:43:51;;;;;;;10.43;2.20;;;;;;;;;;4995654;28;20046;-56
2023/03/31 02:46:16;;;;;;;7.45;1.90;;;;;;;;;;5004642;28;20422;-62
2023/03/31 02:48:43;;;;;;;9.38;2.40;;;;;;;;;;5009725;28;20033;-57
2023/03/31 02:51:18;;;;;;;5.10;1.95;;;;;;;;;;5003166;28;20852;-58
2023/03/31 02:53:43;;;;;;;10.82;2.30;;;;;;;;;;5009139;28;20087;-58
2023/03/31 02:56:18;;;;;;;7.45;2.10;;;;;;;;;;5012356;28;20041;-57
2023/03/31 02:59:01;;;;;;;6.65;2.28;;;;;;;;;;5010188;28;20036;-57
2023/03/31 03:02:05;;;;;;;8.00;2.10;;;;;;;;;;4994595;28;20033;-58
2023/03/31 03:04:33;;;;;;;7.45;2.30;;;;;;;;;;4958268;28;20034;-59
2023/03/31 03:07:02;;;;;;;6.40;2.10;;;;;;;;;;4938965;28;20037;-60
2023/03/31 03:09:45;;;;;;;7.85;2.20;;;;;;;;;;4983741;28;20529;-58
2023/03/31 03:12:29;;;;;;;7.55;2.35;;;;;;;;;;5014741;28;20391;-61
2023/03/31 03:15:00;;;;;;;8.38;2.30;;;;;;;;;;5007271;28;20056;-58
2023/03/31 03:17:36;;;;;;;9.13;2.15;;;;;;;;;;5013525;28;20033;-61
2023/03/31 03:20:07;;;;;;;4.97;2.15;;;;;;;;;;5008741;28;20064;-58
2023/03/31 03:22:32;;;;;;;9.88;2.83;;;;;;;;;;5005164;28;20057;-59
2023/03/31 03:24:57;;;;;;;6.47;2.72;;;;;;;;;;5012394;28;20120;-59
2023/03/31 03:27:23;;;;;;;9.60;2.92;;;;;;;;;;5002057;28;20030;-62
2023/03/31 03:29:48;;;;;;;7.35;2.40;;;;;;;;;;5002473;28;20398;-59
2023/03/31 03:32:13;;;;;;;7.13;2.47;;;;;;;;;;5009587;28;20805;-59
2023/03/31 03:34:39;;;;;;;7.45;2.70;;;;;;;;;;5003898;28;20060;-59
2023/03/31 03:37:04;;;;;;;9.02;2.72;;;;;;;;;;5013372;28;20268;-58
2023/03/31 03:39:30;;;;;;;8.65;2.67;;;;;;;;;;5002876;28;20037;-60
2023/03/31 03:41:55;;;;;;;7.10;2.67;;;;;;;;;;5006071;28;20022;-58
2023/03/31 03:44:20;;;;;;;7.50;2.35;;;;;;;;;;5009591;28;20581;-59
2023/03/31 03:46:46;;;;;;;10.52;2.50;;;;;;;;;;5005745;28;20497;-58
2023/03/31 03:49:11;;;;;;;8.70;2.83;;;;;;;;;;5009326;28;20037;-61
2023/03/31 03:51:36;;;;;;;6.72;2.58;;;;;;;;;;5005078;28;20029;-58
2023/03/31 03:54:02;;;;;;;9.93;3.47;;;;;;;;;;5001800;28;20398;-58
2023/03/31 03:56:27;;;;;;;9.20;3.20;;;;;;;;;;5009884;28;20044;-57
2023/03/31 03:58:52;;;;;;;8.25;3.10;;;;;;;;;;5005869;28;20186;-61
2023/03/31 04:01:18;;;;;;;7.72;2.85;;;;;;;;;;5009460;28;20022;-58
2023/03/31 04:03:43;;;;;;;6.30;2.60;;;;;;;;;;5007766;28;20111;-58
2023/03/31 04:06:09;;;;;;;7.13;2.70;;;;;;;;;;5004953;28;20107;-58
2023/03/31 04:08:34;;;;;;;6.93;2.63;;;;;;;;;;5011314;28;20040;-59
2023/03/31 04:11:00;;;;;;;6.32;2.65;;;;;;;;;;5008578;28;20495;-60
2023/03/31 04:13:25;;;;;;;6.53;2.80;;;;;;;;;;5013363;28;20026;-59
2023/03/31 04:15:51;;;;;;;8.77;3.00;;;;;;;;;;5005728;28;20619;-59
2023/03/31 04:18:22;;;;;;;8.55;2.85;;;;;;;;;;5010014;28;20122;-58
2023/03/31 04:21:03;;;;;;;7.30;2.92;;;;;;;;;;5012528;28;20490;-58
2023/03/31 04:23:32;;;;;;;8.40;2.83;;;;;;;;;;5006795;28;20029;-59
2023/03/31 04:25:57;;;;;;;5.03;2.53;;;;;;;;;;5018072;28;20171;-60
2023/03/31 04:28:25;;;;;;;7.13;3.33;;;;;;;;;;5009264;28;20036;-61
2023/03/31 04:30:53;;;;;;;7.22;2.80;;;;;;;;;;5006389;28;20044;-59
2023/03/31 04:33:19;;;;;;;15.10;3.13;;;;;;;;;;5019412;28;20036;-57
2023/03/31 04:35:51;;;;;;;7.00;2.92;;;;;;;;;;5013200;28;20038;-60
2023/03/31 04:38:20;;;;;;;6.43;2.83;;;;;;;;;;5011202;28;20037;-60
2023/03/31 04:40:46;;;;;;;6.55;3.05;;;;;;;;;;5013468;28;20037;-60
2023/03/31 04:43:12;;;;;;;4.90;2.67;;;;;;;;;;5007528;28;20497;-59
2023/03/31 04:45:37;;;;;;;11.50;3.03;;;;;;;;;;5015335;28;20029;-59
2023/03/31 04:48:03;;;;;;;6.53;2.70;;;;;;;;;;5019822;28;20030;-63
2023/03/31 04:50:28;;;;;;;14.23;3.15;;;;;;;;;;5013395;28;20036;-57
2023/03/31 04:52:53;;;;;;;9.20;2.95;;;;;;;;;;5015914;28;20061;-58
2023/03/31 04:55:19;;;;;;;8.20;2.88;;;;;;;;;;5009695;28;20140;-58
2023/03/31 04:57:44;;;;;;;9.18;3.10;;;;;;;;;;5018327;28;20033;-60
2023/03/31 05:00:10;;;;;;;6.65;2.80;;;;;;;;;;5012086;28;20033;-59
2023/03/31 05:02:35;;;;;;;6.80;3.22;;;;;;;;;;5005287;28;20576;-60
2023/03/31 05:05:00;;;;;;;8.20;2.92;;;;;;;;;;5012006;28;20460;-58
2023/03/31 05:07:26;;;;;;;8.27;2.80;;;;;;;;;;5016539;28;20067;-58
2023/03/31 05:09:51;;;;;;;10.02;3.67;;;;;;;;;;5015860;28;20367;-58
2023/03/31 05:12:16;;;;;;;9.52;4.18;;;;;;;;;;5005115;28;20032;-57
2023/03/31 05:14:42;;;;;;;15.55;4.25;;;;;;;;;;5013990;28;20476;-58
2023/03/31 05:17:07;;;;;;;12.02;3.92;;;;;;;;;;5019852;28;20041;-58
2023/03/31 05:19:32;;;;;;;10.20;4.60;;;;;;;;;;5007091;28;20523;-60
2023/03/31 05:21:58;;;;;;;10.70;4.10;;;;;;;;;;5012477;28;20038;-58
2023/03/31 05:24:23;;;;;;;9.93;4.15;;;;;;;;;;5012545;28;20083;-58
2023/03/31 05:26:51;;;;;;;9.45;3.85;;;;;;;;;;5026770;28;20549;-58
2023/03/31 05:29:20;;;;;;;9.25;4.00;;;;;;;;;;5016084;28;20190;-58
2023/03/31 05:31:45;;;;;;;17.30;4.30;;;;;;;;;;5009164;28;20056;-59
2023/03/31 05:34:10;;;;;;;10.02;4.35;;;;;;;;;;5011759;28;20391;-58
2023/03/31 05:36:36;;;;;;;10.32;4.60;;;;;;;;;;5008091;28;20025;-58
2023/03/31 05:39:02;;;;;;;13.45;4.53;;;;;;;;;;5005278;28;20106;-59
2023/03/31 05:41:27;;;;;;;11.35;4.25;;;;;;;;;;5014077;28;20022;-58
2023/03/31 05:43:52;;;;;;;9.60;4.25;;;;;;;;;;5009568;28;20175;-59
2023/03/31 05:46:18;;;;;;;8.45;3.80;;;;;;;;;;5016773;28;20034;-59
2023/03/31 05:48:43;;;;;;;10.73;5.10;;;;;;;;;;5006657;28;20126;-60
2023/03/31 05:51:09;;;;;;;8.38;3.83;;;;;;;;;;5007982;28;20030;-59
2023/03/31 05:53:34;;;;;;;9.05;4.68;;;;;;;;;;5011704;28;20095;-58
2023/03/31 05:56:04;;;;;;;11.60;4.65;;;;;;;;;;5004139;28;20029;-59
2023/03/31 05:58:30;;;;;;;9.05;4.50;;;;;;;;;;5017220;28;20498;-58
2023/03/31 06:01:01;;;;;;;12.68;5.03;;;;;;;;;;5007002;28;20034;-58
2023/03/31 06:03:26;;;;;;;8.90;4.50;;;;;;;;;;5014537;28;20033;-61
2023/03/31 06:05:52;;;;;;;10.68;4.80;;;;;;;;;;5010279;28;20146;-61
2023/03/31 06:08:18;;;;;;;11.27;4.70;;;;;;;;;;5007816;28;20083;-58
2023/03/31 06:10:43;;;;;;;12.48;4.78;;;;;;;;;;5016717;28;20030;-58
2023/03/31 06:13:08;;;;;;;13.13;4.47;;;;;;;;;;5011818;28;20073;-60
2023/03/31 06:15:34;;;;;;;9.63;4.47;;;;;;;;;;5011292;28;20037;-59
2023/03/31 06:17:59;;;;;;;16.13;4.68;;;;;;;;;;4999104;28;20056;-59
2023/03/31 06:20:25;;;;;;;10.25;4.45;;;;;;;;;;5013923;28;20068;-59
2023/03/31 06:22:50;;;;;;;9.00;4.53;;;;;;;;;;5013338;28;20030;-61
2023/03/31 06:25:15;;;;;;;9.02;4.60;;;;;;;;;;5027948;28;20057;-59
2023/03/31 06:27:41;;;;;;;11.10;4.60;;;;;;;;;;5013339;28;20483;-60
2023/03/31 06:30:06;;;;;;;11.60;5.63;;;;;;;;;;5016236;28;20045;-59
2023/03/31 06:32:32;;;;;;;13.00;4.75;;;;;;;;;;5011824;28;20060;-58
2023/03/31 06:34:57;;;;;;;16.23;5.60;;;;;;;;;;5012426;28;20059;-59
2023/03/31 06:37:22;;;;;;;10.98;5.43;;;;;;;;;;5014327;28;20026;-59
2023/03/31 06:39:48;;;;;;;13.70;5.32;;;;;;;;;;5012539;28;20330;-59
2023/03/31 06:42:13;;;;;;;15.18;5.95;;;;;;;;;;5011915;28;20097;-61
2023/03/31 06:44:39;;;;;;;11.90;5.55;;;;;;;;;;5012279;28;20029;-60
2023/03/31 06:47:05;;;;;;;13.10;5.65;;;;;;;;;;5011299;28;20488;-62
2023/03/31 06:49:30;;;;;;;10.98;5.53;;;;;;;;;;5012754;28;20125;-60
2023/03/31 06:51:55;;;;;;;10.88;5.40;;;;;;;;;;4998631;28;20120;-59
2023/03/31 06:54:20;;;;;;;9.85;5.13;;;;;;;;;;5008825;28;20041;-58
2023/03/31 06:56:46;;;;;;;14.75;6.53;;;;;;;;;;5025531;28;20561;-59
2023/03/31 06:59:11;;;;;;;13.20;5.97;;;;;;;;;;5012727;28;20067;-61
2023/03/31 07:01:37;;;;;;;16.05;6.13;;;;;;;;;;5010066;28;20026;-59
2023/03/31 07:04:03;;;;;;;13.05;6.65;;;;;;;;;;5011818;28;20041;-59
2023/03/31 07:06:29;;;;;;;14.77;6.43;;;;;;;;;;5015306;28;20087;-59
2023/03/31 07:08:55;;;;;;;12.25;6.53;;;;;;;;;;5011848;28;20129;-60
2023/03/31 07:11:21;;;;;;;13.20;6.80;;;;;;;;;;5012958;28;20037;-59
2023/03/31 07:13:46;;;;;;;16.05;6.57;;;;;;;;;;5008577;28;20037;-60
2023/03/31 07:16:13;;;;;;;15.25;6.38;;;;;;;;;;5013755;28;20033;-59
2023/03/31 07:18:40;;;;;;;18.00;7.30;;;;;;;;;;5012477;28;20508;-59
2023/03/31 07:21:06;;;;;;;16.02;6.13;;;;;;;;;;5024011;28;20026;-60
2023/03/31 07:23:32;;;;;;;17.13;6.50;;;;;;;;;;5011599;28;20463;-60
2023/03/31 07:26:01;;;;;;;13.15;6.63;;;;;;;;;;5011505;28;20540;-61
2023/03/31 07:28:27;;;;;;;16.80;6.78;;;;;;;;;;5014403;28;20029;-59
2023/03/31 07:30:52;;;;;;;15.18;6.10;;;;;;;;;;5013165;28;20040;-60
2023/03/31 07:33:17;;;;;;;14.77;6.38;;;;;;;;;;5015151;28;20046;-59
2023/03/31 07:35:43;;;;;;;12.63;5.65;;;;;;;;;;5024535;28;20061;-58
2023/03/31 07:38:08;;;;;;;13.55;5.47;;;;;;;;;;5010419;28;20105;-58
2023/03/31 07:40:34;;;;;;;11.55;4.65;;;;;;;;;;5010389;28;20105;-61
2023/03/31 07:42:59;;;;;;;12.20;5.45;;;;;;;;;;5011864;28;20053;-61
2023/03/31 07:45:25;;;;;;;8.55;4.72;;;;;;;;;;5016026;28;20042;-59
2023/03/31 07:47:50;;;;;;;11.60;4.03;;;;;;;;;;5015121;28;20030;-58
2023/03/31 07:50:16;;;;;;;8.63;3.72;;;;;;;;;;5014640;28;20032;-59
2023/03/31 07:52:42;;;;;;;9.60;4.40;;;;;;;;;;5016336;28;20088;-60
2023/03/31 07:55:07;;;;;;;7.70;3.60;;;;;;;;;;5013793;28;20557;-58
2023/03/31 07:57:33;;;;;;;9.05;3.72;;;;;;;;;;5015146;28;20045;-59
2023/03/31 07:59:58;;;;;;;11.65;4.00;;;;;;;;;;5015994;28;20060;-59
2023/03/31 08:02:24;;;;;;;7.45;3.30;;;;;;;;;;5015739;28;20033;-59
2023/03/31 08:04:49;;;;;;;8.23;3.55;;;;;;;;;;5016471;28;20116;-57
2023/03/31 08:07:15;;;;;;;8.52;3.00;;;;;;;;;;5029961;28;20115;-59
2023/03/31 08:09:42;;;;;;;9.38;3.10;;;;;;;;;;5013526;28;20109;-59
2023/03/31 08:12:08;;;;;;;8.55;3.20;;;;;;;;;;5018046;28;20026;-58
2023/03/31 08:14:33;;;;;;;5.45;3.00;;;;;;;;;;5013680;28;20036;-58
2023/03/31 08:16:59;;;;;;;7.15;2.60;;;;;;;;;;5017525;28;20402;-58
2023/03/31 08:19:25;;;;;;;5.95;2.50;;;;;;;;;;5019923;28;20029;-59
2023/03/31 08:21:51;;;;;;;4.90;2.63;;;;;;;;;;5014498;28;20056;-58
2023/03/31 08:24:16;;;;;;;6.70;2.60;;;;;;;;;;5014444;28;20471;-58
2023/03/31 08:26:42;;;;;;;5.13;2.70;;;;;;;;;;5015399;28;20041;-58
2023/03/31 08:29:07;;;;;;;5.75;2.72;;;;;;;;;;5016368;28;20594;-58
2023/03/31 08:31:32;;;;;;;7.80;2.47;;;;;;;;;;5012803;28;20439;-60
2023/03/31 08:33:58;;;;;;;8.52;2.58;;;;;;;;;;5005026;28;20113;-60
2023/03/31 08:36:24;;;;;;;6.07;2.20;;;;;;;;;;5013694;28;20037;-60
2023/03/31 08:38:49;;;;;;;4.35;1.92;;;;;;;;;;5013076;28;20032;-59
2023/03/31 08:41:25;;;;;;;2.58;1.67;;;;;;;;;;5012247;28;20510;-58
2023/03/31 08:43:52;;;;;;;3.90;1.87;;;;;;;;;;5010836;28;20475;-59
2023/03/31 08:46:18;;;;;;;5.20;1.77;;;;;;;;;;5027534;28;20038;-59
2023/03/31 08:48:47;;;;;;;5.13;1.70;;;;;;;;;;5014067;28;20032;-59
2023/03/31 08:51:13;;;;;;;5.82;2.05;;;;;;;;;;5012670;28;20036;-60
2023/03/31 08:53:47;;;;;;;3.50;2.00;;;;;;;;;;5014906;28;20026;-58
2023/03/31 08:56:16;;;;;;;5.07;2.00;;;;;;;;;;5013896;28;20065;-59
2023/03/31 08:58:43;;;;;;;4.03;1.75;;;;;;;;;;5014904;28;20029;-60
2023/03/31 09:01:08;;;;;;;6.85;2.10;;;;;;;;;;5013141;28;20075;-58
2023/03/31 09:03:46;;;;;;;6.43;2.00;;;;;;;;;;5011696;28;20038;-58
2023/03/31 09:06:22;;;;;;;4.95;1.88;;;;;;;;;;5017956;28;20768;-60
2023/03/31 09:08:47;;;;;;;4.40;1.83;;;;;;;;;;5013961;28;20056;-57
2023/03/31 09:11:28;;;;;;;6.20;2.83;;;;;;;;;;5017921;28;20470;-57
2023/03/31 09:13:59;;;;;;;6.70;1.90;;;;;;;;;;5012485;28;20429;-62
2023/03/31 09:16:31;;;;;;;4.90;1.60;;;;;;;;;;5011879;28;20485;-59
2023/03/31 09:18:59;;;;;;;2.97;1.60;;;;;;;;;;5011789;28;20030;-59
2023/03/31 09:21:30;;;;;;;4.10;1.73;;;;;;;;;;5011374;28;20476;-59
2023/03/31 09:24:07;;;;;;;7.07;2.20;;;;;;;;;;5012244;28;20445;-59
2023/03/31 09:26:51;;;;;;;8.85;2.10;;;;;;;;;;5014755;28;20045;-59
2023/03/31 09:29:23;;;;;;;4.68;1.90;;;;;;;;;;5009252;28;20558;-61
2023/03/31 09:31:48;;;;;;;7.53;2.00;;;;;;;;;;5017502;28;20037;-60
2023/03/31 09:34:16;;;;;;;4.28;1.70;;;;;;;;;;5013693;28;20441;-59
2023/03/31 09:36:42;;;;;;;5.20;1.80;;;;;;;;;;5014317;28;20029;-59
2023/03/31 09:39:11;;;;;;;6.07;2.45;;;;;;;;;;5015347;28;20068;-59
2023/03/31 09:41:36;;;;;;;3.47;1.80;;;;;;;;;;5009586;28;20793;-59
2023/03/31 09:44:01;;;;;;;4.03;1.80;;;;;;;;;;5011172;28;20033;-58
2023/03/31 09:46:29;;;;;;;3.97;1.65;;;;;;;;;;5010330;28;20551;-59
2023/03/31 09:49:12;;;;;;;3.65;1.60;;;;;;;;;;5010158;28;20679;-58
2023/03/31 09:51:40;;;;;;;6.18;1.95;;;;;;;;;;5013176;28;20037;-58
2023/03/31 09:54:23;;;;;;;3.95;2.00;;;;;;;;;;5010998;28;20521;-63
2023/03/31 09:56:52;;;;;;;4.43;1.58;;;;;;;;;;5012750;28;20463;-59
2023/03/31 09:59:18;;;;;;;5.97;2.20;;;;;;;;;;5010695;28;20038;-59
2023/03/31 10:01:45;;;;;;;6.57;1.88;;;;;;;;;;5011053;28;20101;-58
2023/03/31 10:04:16;;;;;;;9.40;1.90;;;;;;;;;;5011538;28;20163;-58
2023/03/31 10:06:42;;;;;;;5.57;1.63;;;;;;;;;;5010775;28;20278;-59
2023/03/31 10:09:09;;;;;;;5.18;1.58;;;;;;;;;;5010788;28;20445;-59
2023/03/31 10:11:34;;;;;;;;;;;;;;;;;;5014410;28;20025;-58
2023/03/31 10:14:12;;;;;;;7.33;2.30;;;;;;;;;;5010471;28;20381;-56
2023/03/31 10:16:46;;;;;;;4.85;1.60;;;;;;;;;;5013125;28;20262;-62
2023/03/31 10:19:17;;;;;;;11.00;2.35;;;;;;;;;;5015635;28;20037;-58
2023/03/31 10:21:45;;;;;;;4.30;1.65;;;;;;;;;;5012300;28;20454;-59
2023/03/31 10:24:10;;;;;;;7.93;1.80;;;;;;;;;;5013661;28;20067;-57
2023/03/31 10:26:36;;;;;;;9.38;2.20;;;;;;;;;;5024336;28;20374;-57
2023/03/31 10:29:08;;;;;;;6.82;2.08;;;;;;;;;;5010434;28;21066;-59
2023/03/31 10:31:35;;;;;;;9.45;2.03;;;;;;;;;;5007607;28;20037;-57
2023/03/31 10:34:05;;;;;;;7.30;2.40;;;;;;;;;;5008501;28;20080;-57
2023/03/31 10:36:31;;;;;;;6.47;1.92;;;;;;;;;;5025159;28;20839;-58
2023/03/31 10:38:57;;;;;;;6.07;1.85;;;;;;;;;;5026085;28;20554;-55
2023/03/31 10:41:24;;;;;;;7.10;2.08;;;;;;;;;;5011940;28;20022;-58
2023/03/31 10:43:53;;;;;;;8.30;2.30;;;;;;;;;;5010880;28;20501;-58
2023/03/31 10:46:19;;;;;;;10.38;2.35;;;;;;;;;;5009959;28;20052;-58
2023/03/31 10:48:45;;;;;;;9.20;2.42;;;;;;;;;;5010703;28;20387;-58
2023/03/31 10:51:10;;;;;;;9.35;2.17;;;;;;;;;;5007874;28;20477;-58
2023/03/31 10:53:40;;;;;;;11.93;2.38;;;;;;;;;;5016675;28;20140;-57
2023/03/31 10:56:21;;;;;;;6.93;1.85;;;;;;;;;;5010854;28;20219;-58
2023/03/31 10:58:49;;;;;;;7.70;2.20;;;;;;;;;;5010730;28;20390;-58
2023/03/31 11:01:36;;;;;;;7.80;2.17;;;;;;;;;;5009128;28;20584;-56
2023/03/31 11:04:01;;;;;;;;;;;;;;;;;;5011998;28;20965;-56
2023/03/31 11:06:53;;;;;;;7.83;2.00;;;;;;;;;;5013570;28;20007;-55
2023/03/31 11:09:28;;;;;;;5.95;1.80;;;;;;;;;;5007023;28;20046;-57
2023/03/31 11:11:53;;;;;;;6.47;1.77;;;;;;;;;;5010693;28;20026;-58
2023/03/31 11:14:33;;;;;;;6.70;1.90;;;;;;;;;;5012375;28;20044;-60
2023/03/31 11:17:03;;;;;;;6.43;2.10;;;;;;;;;;5015665;28;20029;-60
2023/03/31 11:19:38;;;;;;;13.32;2.58;;;;;;;;;;5009183;28;20063;-58
2023/03/31 11:22:22;;;;;;;7.97;2.70;;;;;;;;;;5011338;28;20052;-57
2023/03/31 11:25:04;;;;;;;8.43;2.22;;;;;;;;;;5008487;28;20235;-57
2023/03/31 11:27:36;;;;;;;7.50;1.98;;;;;;;;;;5009806;28;20422;-55
2023/03/31 11:30:02;;;;;;;7.93;1.90;;;;;;;;;;5009104;28;20079;-57
2023/03/31 11:32:28;;;;;;;5.25;1.80;;;;;;;;;;5009830;28;20030;-58
2023/03/31 11:34:56;;;;;;;8.07;2.28;;;;;;;;;;5007758;28;20040;-57
2023/03/31 11:37:30;;;;;;;8.80;1.67;;;;;;;;;;5009292;28;20030;-59
2023/03/31 11:40:06;;;;;;;4.57;1.52;;;;;;;;;;5012359;28;20041;-58
2023/03/31 11:42:38;;;;;;;3.42;1.20;;;;;;;;;;5009777;28;20030;-56
2023/03/31 11:45:11;;;;;;;3.90;1.38;;;;;;;;;;5007600;28;20034;-60
2023/03/31 11:47:40;;;;;;;2.50;1.27;;;;;;;;;;5011405;28;20049;-58
2023/03/31 11:50:10;;;;;;;2.25;1.13;;;;;;;;;;5010651;28;20038;-60
2023/03/31 11:52:41;;;;;;;4.35;1.30;;;;;;;;;;5008808;28;20037;-60
2023/03/31 11:55:20;;;;;;;3.05;1.23;;;;;;;;;;5014917;28;20446;-61
2023/03/31 11:57:51;;;;;;;1.60;1.08;;;;;;;;;;5012921;28;20042;-59
2023/03/31 12:00:17;;;;;;;2.47;1.27;;;;;;;;;;5011024;28;20033;-59
2023/03/31 12:02:43;;;;;;;1.65;1.08;;;;;;;;;;5012740;28;20026;-59
2023/03/31 12:05:11;;;;;;;2.15;1.38;;;;;;;;;;5011850;28;20135;-60
2023/03/31 12:07:36;;;;;;;4.05;1.13;;;;;;;;;;5010004;28;20360;-58
2023/03/31 12:10:14;;;;;;;3.35;1.30;;;;;;;;;;5011662;28;20037;-59
2023/03/31 12:12:44;;;;;;;2.13;1.30;;;;;;;;;;5012780;28;20444;-58
2023/03/31 12:15:24;;;;;;;5.03;1.23;;;;;;;;;;5011982;28;20026;-59
2023/03/31 12:18:01;;;;;;;2.13;1.15;;;;;;;;;;5011399;28;20025;-58
2023/03/31 12:20:32;;;;;;;3.65;1.23;;;;;;;;;;5012103;28;20395;-59
2023/03/31 12:22:59;;;;;;;4.57;1.73;;;;;;;;;;5012799;28;20037;-60
2023/03/31 12:25:29;;;;;;;3.22;1.38;;;;;;;;;;5011924;28;20033;-58
2023/03/31 12:27:55;;;;;;;3.78;1.20;;;;;;;;;;5013139;28;20033;-58
2023/03/31 12:30:33;;;;;;;1.25;1.00;;;;;;;;;;5014458;28;20030;-62
2023/03/31 12:33:04;;;;;;;2.50;1.00;;;;;;;;;;5019331;28;20409;-60
2023/03/31 12:35:42;;;;;;;1.13;1.00;;;;;;;;;;5013167;28;20501;-59
2023/03/31 12:38:25;;;;;;;1.98;0.95;;;;;;;;;;5014208;28;20083;-58
2023/03/31 12:41:11;;;;;;;2.33;1.20;;;;;;;;;;5015739;28;20032;-59
2023/03/31 12:43:36;;;;;;;3.03;1.00;;;;;;;;;;5014017;28;20038;-59
2023/03/31 12:46:01;;;;;;;1.08;0.90;;;;;;;;;;5026861;28;20530;-60
2023/03/31 12:48:48;;;;;;;2.80;1.08;;;;;;;;;;5014935;28;20430;-60
2023/03/31 12:51:13;;;;;;;;;;;;;;;;;;5016403;28;20455;-60
2023/03/31 12:53:57;;;;;;;1.37;1.00;;;;;;;;;;5028563;28;19918;-59
2023/03/31 12:56:23;;;;;;;3.53;1.50;;;;;;;;;;5014354;28;20037;-60
2023/03/31 12:58:48;;;;;;;2.85;1.10;;;;;;;;;;5013595;28;20040;-60
2023/03/31 13:01:17;;;;;;;4.20;1.30;;;;;;;;;;5011299;28;20614;-61
2023/03/31 13:03:44;;;;;;;3.58;1.10;;;;;;;;;;5016245;28;20033;-59
2023/03/31 13:06:24;;;;;;;4.77;1.33;;;;;;;;;;5014736;28;20408;-59
2023/03/31 13:08:53;;;;;;;3.33;1.17;;;;;;;;;;5017156;28;20026;-59
2023/03/31 13:11:36;;;;;;;3.58;1.35;;;;;;;;;;5011622;28;20044;-59
2023/03/31 13:14:12;;;;;;;5.95;1.60;;;;;;;;;;5015948;28;20067;-61
2023/03/31 13:16:37;;;;;;;3.15;1.38;;;;;;;;;;5011683;28;20471;-60
2023/03/31 13:19:03;;;;;;;3.70;1.33;;;;;;;;;;5014215;28;20021;-60
2023/03/31 13:21:29;;;;;;;2.33;1.15;;;;;;;;;;5011954;28;20033;-58
2023/03/31 13:23:58;;;;;;;5.03;1.50;;;;;;;;;;5029558;28;20394;-58
2023/03/31 13:26:33;;;;;;;4.88;1.58;;;;;;;;;;5013261;28;20026;-59
2023/03/31 13:29:10;;;;;;;6.40;1.40;;;;;;;;;;5008995;28;20032;-59
2023/03/31 13:31:54;;;;;;;5.72;1.42;;;;;;;;;;5012238;28;20106;-60
2023/03/31 13:34:20;;;;;;;3.58;1.48;;;;;;;;;;5012060;28;20152;-60
2023/03/31 13:36:56;;;;;;;3.90;1.30;;;;;;;;;;5012672;28;20510;-59
2023/03/31 13:39:28;;;;;;;6.10;1.77;;;;;;;;;;5013854;28;20564;-59
2023/03/31 13:42:01;;;;;;;4.05;1.15;;;;;;;;;;5013522;28;20340;-59
2023/03/31 13:44:32;;;;;;;3.97;1.33;;;;;;;;;;5010753;28;20098;-59
2023/03/31 13:47:16;;;;;;;4.50;1.52;;;;;;;;;;5010724;28;20576;-60
2023/03/31 13:49:54;;;;;;;4.95;1.50;;;;;;;;;;5011799;28;20037;-63
2023/03/31 13:52:25;;;;;;;9.40;2.08;;;;;;;;;;5010044;28;20021;-59
2023/03/31 13:55:02;;;;;;;3.45;1.20;;;;;;;;;;5009502;28;20542;-60
2023/03/31 13:57:30;;;;;;;6.38;1.30;;;;;;;;;;5014041;28;20037;-59
2023/03/31 14:00:14;;;;;;;5.30;1.60;;;;;;;;;;5012145;28;20017;-61
2023/03/31 14:02:51;;;;;;;2.55;0.90;;;;;;;;;;5011495;28;20346;-59
2023/03/31 14:05:32;;;;;;;2.33;1.30;;;;;;;;;;5012346;28;20704;-61
2023/03/31 14:07:57;;;;;;;3.40;1.10;;;;;;;;;;5013992;28;20462;-60
2023/03/31 14:10:33;;;;;;;1.77;0.70;;;;;;;;;;5011271;28;20025;-59
2023/03/31 14:13:07;;;;;;;0.90;0.75;;;;;;;;;;5025876;28;20040;-59
2023/03/31 14:15:34;;;;;;;0.60;0.60;;;;;;;;;;5009282;28;20462;-59
2023/03/31 14:18:00;;;;;;;1.05;0.80;;;;;;;;;;5013375;28;20026;-60
2023/03/31 14:20:28;;;;;;;2.08;1.00;;;;;;;;;;5009462;28;20034;-63
2023/03/31 14:23:03;;;;;;;2.22;1.10;;;;;;;;;;5010698;28;20141;-59
2023/03/31 14:25:31;;;;;;;2.10;0.80;;;;;;;;;;5010434;28;20037;-61
2023/03/31 14:28:20;;;;;;;1.00;0.75;;;;;;;;;;5008968;28;20041;-59
2023/03/31 14:30:51;;;;;;;1.30;0.95;;;;;;;;;;5002738;28;20045;-60
2023/03/31 14:33:16;;;;;;;1.23;1.00;;;;;;;;;;5011688;28;20068;-61
2023/03/31 14:35:49;;;;;;;1.58;1.00;;;;;;;;;;5011963;28;20475;-62
2023/03/31 14:38:19;;;;;;;0.95;0.93;;;;;;;;;;5011410;28;20371;-60
2023/03/31 14:40:55;;;;;;;2.50;1.02;;;;;;;;;;5012247;28;20088;-62
2023/03/31 14:43:22;;;;;;;3.35;1.02;;;;;;;;;;5011138;28;20033;-60
2023/03/31 14:45:47;;;;;;;;;;;;;;;;;;5009877;28;20038;-61
2023/03/31 14:48:13;;;;;;;2.33;1.20;;;;;;;;;;5012176;28;19917;-62
2023/03/31 14:50:43;;;;;;;3.38;1.45;;;;;;;;;;5010737;28;20026;-61
2023/03/31 14:53:16;;;;;;;7.75;1.40;;;;;;;;;;5017438;28;20063;-59
2023/03/31 14:55:41;;;;;;;3.20;1.02;;;;;;;;;;5009521;28;20150;-60